sensor_id;sensor_type;location;lat;lon;timestamp;P1;durP1;ratioP1;P2;durP2;ratioP2
6121;SDS011;3091;51.506;7.672;2022-12-20T00:00:13;14.27;;;13.57;;
6121;SDS011;3091;51.506;7.672;2022-12-20T00:02:39;15.20;;;14.50;;
6121;SDS011;3091;51.506;7.672;2022-12-20T00:05:08;13.83;;;13.30;;
6121;SDS011;3091;51.506;7.672;2022-12-20T00:07:34;13.33;;;12.83;;
6121;SDS011;3091;51.506;7.672;2022-12-20T00:10:00;13.43;;;12.93;;
6121;SDS011;3091;51.506;7.672;2022-12-20T00:12:26;13.50;;;13.00;;
6121;SDS011;3091;51.506;7.672;2022-12-20T00:14:59;14.17;;;13.17;;
6121;SDS011;3091;51.506;7.672;2022-12-20T00:17:25;13.30;;;12.80;;
6121;SDS011;3091;51.506;7.672;2022-12-20T00:19:51;12.97;;;12.47;;
6121;SDS011;3091;51.506;7.672;2022-12-20T00:22:17;13.73;;;12.93;;
6121;SDS011;3091;51.506;7.672;2022-12-20T00:24:43;13.20;;;12.70;;
6121;SDS011;3091;51.506;7.672;2022-12-20T00:27:09;13.80;;;13.20;;
6121;SDS011;3091;51.506;7.672;2022-12-20T00:29:35;12.90;;;12.40;;
6121;SDS011;3091;51.506;7.672;2022-12-20T00:32:01;13.27;;;12.77;;
6121;SDS011;3091;51.506;7.672;2022-12-20T00:34:27;13.70;;;13.20;;
6121;SDS011;3091;51.506;7.672;2022-12-20T00:36:53;13.27;;;12.77;;
6121;SDS011;3091;51.506;7.672;2022-12-20T00:39:19;12.90;;;12.40;;
6121;SDS011;3091;51.506;7.672;2022-12-20T00:41:45;13.80;;;13.10;;
6121;SDS011;3091;51.506;7.672;2022-12-20T00:44:11;13.07;;;12.53;;
6121;SDS011;3091;51.506;7.672;2022-12-20T00:46:37;12.90;;;12.40;;
6121;SDS011;3091;51.506;7.672;2022-12-20T00:49:03;13.03;;;12.47;;
6121;SDS011;3091;51.506;7.672;2022-12-20T00:51:31;12.73;;;12.23;;
6121;SDS011;3091;51.506;7.672;2022-12-20T00:53:57;12.80;;;12.30;;
6121;SDS011;3091;51.506;7.672;2022-12-20T00:56:23;13.67;;;13.17;;
6121;SDS011;3091;51.506;7.672;2022-12-20T00:58:49;12.70;;;12.20;;
6121;SDS011;3091;51.506;7.672;2022-12-20T01:01:24;13.20;;;12.70;;
6121;SDS011;3091;51.506;7.672;2022-12-20T01:03:52;13.20;;;12.60;;
6121;SDS011;3091;51.506;7.672;2022-12-20T01:06:18;12.40;;;12.00;;
6121;SDS011;3091;51.506;7.672;2022-12-20T01:08:44;12.30;;;11.90;;
6121;SDS011;3091;51.506;7.672;2022-12-20T01:11:13;12.80;;;12.30;;
6121;SDS011;3091;51.506;7.672;2022-12-20T01:13:42;12.80;;;12.30;;
6121;SDS011;3091;51.506;7.672;2022-12-20T01:16:10;12.93;;;12.33;;
6121;SDS011;3091;51.506;7.672;2022-12-20T01:18:37;12.13;;;11.73;;
6121;SDS011;3091;51.506;7.672;2022-12-20T01:21:04;12.63;;;12.13;;
6121;SDS011;3091;51.506;7.672;2022-12-20T01:23:30;12.40;;;12.00;;
6121;SDS011;3091;51.506;7.672;2022-12-20T01:26:00;12.77;;;12.27;;
6121;SDS011;3091;51.506;7.672;2022-12-20T01:28:28;12.60;;;12.10;;
6121;SDS011;3091;51.506;7.672;2022-12-20T01:30:54;12.63;;;12.13;;
6121;SDS011;3091;51.506;7.672;2022-12-20T01:33:20;12.73;;;12.20;;
6121;SDS011;3091;51.506;7.672;2022-12-20T01:35:53;12.47;;;12.00;;
6121;SDS011;3091;51.506;7.672;2022-12-20T01:38:19;12.77;;;12.27;;
6121;SDS011;3091;51.506;7.672;2022-12-20T01:40:45;12.67;;;12.17;;
6121;SDS011;3091;51.506;7.672;2022-12-20T01:43:14;13.30;;;12.70;;
6121;SDS011;3091;51.506;7.672;2022-12-20T01:45:41;12.20;;;11.80;;
6121;SDS011;3091;51.506;7.672;2022-12-20T01:48:07;14.30;;;13.70;;
6121;SDS011;3091;51.506;7.672;2022-12-20T01:50:34;13.03;;;12.60;;
6121;SDS011;3091;51.506;7.672;2022-12-20T01:53:00;12.90;;;12.40;;
6121;SDS011;3091;51.506;7.672;2022-12-20T01:55:28;12.80;;;12.20;;
6121;SDS011;3091;51.506;7.672;2022-12-20T01:58:01;12.50;;;12.10;;
6121;SDS011;3091;51.506;7.672;2022-12-20T02:00:28;13.07;;;12.60;;
6121;SDS011;3091;51.506;7.672;2022-12-20T02:02:54;13.37;;;12.87;;
6121;SDS011;3091;51.506;7.672;2022-12-20T02:05:23;13.07;;;12.60;;
6121;SDS011;3091;51.506;7.672;2022-12-20T02:07:50;13.00;;;12.50;;
6121;SDS011;3091;51.506;7.672;2022-12-20T02:10:18;13.27;;;12.77;;
6121;SDS011;3091;51.506;7.672;2022-12-20T02:12:45;14.30;;;13.80;;
6121;SDS011;3091;51.506;7.672;2022-12-20T02:31:07;13.13;;;12.63;;
6121;SDS011;3091;51.506;7.672;2022-12-20T02:33:35;13.57;;;13.07;;
6121;SDS011;3091;51.506;7.672;2022-12-20T02:36:03;12.87;;;12.40;;
6121;SDS011;3091;51.506;7.672;2022-12-20T02:41:05;13.07;;;12.57;;
6121;SDS011;3091;51.506;7.672;2022-12-20T02:43:33;13.57;;;13.00;;
6121;SDS011;3091;51.506;7.672;2022-12-20T02:46:19;12.97;;;12.57;;
6121;SDS011;3091;51.506;7.672;2022-12-20T02:48:46;13.23;;;12.73;;
6121;SDS011;3091;51.506;7.672;2022-12-20T02:51:13;13.50;;;13.00;;
6121;SDS011;3091;51.506;7.672;2022-12-20T02:53:40;13.77;;;13.17;;
6121;SDS011;3091;51.506;7.672;2022-12-20T02:59:00;13.93;;;13.23;;
6121;SDS011;3091;51.506;7.672;2022-12-20T03:01:32;13.93;;;13.27;;
6121;SDS011;3091;51.506;7.672;2022-12-20T03:03:59;13.93;;;13.43;;
6121;SDS011;3091;51.506;7.672;2022-12-20T03:06:25;13.80;;;13.20;;
6121;SDS011;3091;51.506;7.672;2022-12-20T03:08:52;13.40;;;12.90;;
6121;SDS011;3091;51.506;7.672;2022-12-20T03:11:18;13.73;;;13.13;;
6121;SDS011;3091;51.506;7.672;2022-12-20T03:13:44;14.37;;;13.73;;
6121;SDS011;3091;51.506;7.672;2022-12-20T03:16:10;13.37;;;12.87;;
6121;SDS011;3091;51.506;7.672;2022-12-20T03:18:36;13.70;;;13.20;;
6121;SDS011;3091;51.506;7.672;2022-12-20T03:21:04;14.00;;;13.50;;
6121;SDS011;3091;51.506;7.672;2022-12-20T03:23:31;13.43;;;12.93;;
6121;SDS011;3091;51.506;7.672;2022-12-20T03:25:57;13.33;;;12.83;;
6121;SDS011;3091;51.506;7.672;2022-12-20T03:28:25;13.50;;;13.00;;
6121;SDS011;3091;51.506;7.672;2022-12-20T03:30:51;14.53;;;13.63;;
6121;SDS011;3091;51.506;7.672;2022-12-20T03:33:17;13.20;;;12.70;;
6121;SDS011;3091;51.506;7.672;2022-12-20T03:35:43;13.27;;;12.77;;
6121;SDS011;3091;51.506;7.672;2022-12-20T03:38:09;13.83;;;13.23;;
6121;SDS011;3091;51.506;7.672;2022-12-20T03:40:35;14.40;;;13.80;;
6121;SDS011;3091;51.506;7.672;2022-12-20T03:43:01;16.17;;;14.93;;
6121;SDS011;3091;51.506;7.672;2022-12-20T03:45:27;15.77;;;15.07;;
6121;SDS011;3091;51.506;7.672;2022-12-20T03:47:54;15.30;;;14.70;;
6121;SDS011;3091;51.506;7.672;2022-12-20T03:50:23;14.90;;;14.30;;
6121;SDS011;3091;51.506;7.672;2022-12-20T03:52:49;15.23;;;14.43;;
6121;SDS011;3091;51.506;7.672;2022-12-20T03:55:15;14.40;;;13.80;;
6121;SDS011;3091;51.506;7.672;2022-12-20T03:57:41;14.97;;;14.30;;
6121;SDS011;3091;51.506;7.672;2022-12-20T04:00:07;13.50;;;13.00;;
6121;SDS011;3091;51.506;7.672;2022-12-20T04:02:33;14.67;;;14.07;;
6121;SDS011;3091;51.506;7.672;2022-12-20T04:04:59;14.43;;;13.73;;
6121;SDS011;3091;51.506;7.672;2022-12-20T04:07:25;14.33;;;13.73;;
6121;SDS011;3091;51.506;7.672;2022-12-20T04:09:51;14.13;;;13.63;;
6121;SDS011;3091;51.506;7.672;2022-12-20T04:12:17;14.27;;;13.77;;
6121;SDS011;3091;51.506;7.672;2022-12-20T04:14:43;14.83;;;14.13;;
6121;SDS011;3091;51.506;7.672;2022-12-20T04:17:09;14.83;;;14.17;;
6121;SDS011;3091;51.506;7.672;2022-12-20T04:19:35;13.73;;;13.23;;
6121;SDS011;3091;51.506;7.672;2022-12-20T04:22:01;13.80;;;13.30;;
6121;SDS011;3091;51.506;7.672;2022-12-20T04:24:27;15.10;;;14.40;;
6121;SDS011;3091;51.506;7.672;2022-12-20T04:26:56;15.30;;;14.70;;
6121;SDS011;3091;51.506;7.672;2022-12-20T04:29:22;19.67;;;18.83;;
6121;SDS011;3091;51.506;7.672;2022-12-20T04:31:48;27.83;;;26.57;;
6121;SDS011;3091;51.506;7.672;2022-12-20T04:34:14;35.87;;;34.00;;
6121;SDS011;3091;51.506;7.672;2022-12-20T04:36:40;44.77;;;42.50;;
6121;SDS011;3091;51.506;7.672;2022-12-20T04:39:06;53.37;;;50.77;;
6121;SDS011;3091;51.506;7.672;2022-12-20T04:41:32;59.80;;;56.90;;
6121;SDS011;3091;51.506;7.672;2022-12-20T04:43:58;69.03;;;65.73;;
6121;SDS011;3091;51.506;7.672;2022-12-20T04:46:24;67.03;;;63.73;;
6121;SDS011;3091;51.506;7.672;2022-12-20T04:48:51;67.93;;;64.63;;
6121;SDS011;3091;51.506;7.672;2022-12-20T04:51:17;77.97;;;74.17;;
6121;SDS011;3091;51.506;7.672;2022-12-20T04:53:43;79.70;;;75.93;;
6121;SDS011;3091;51.506;7.672;2022-12-20T04:56:16;72.37;;;68.87;;
6121;SDS011;3091;51.506;7.672;2022-12-20T04:58:42;79.77;;;75.87;;
6121;SDS011;3091;51.506;7.672;2022-12-20T05:01:09;75.50;;;71.70;;
6121;SDS011;3091;51.506;7.672;2022-12-20T05:03:35;71.63;;;68.03;;
6121;SDS011;3091;51.506;7.672;2022-12-20T05:06:01;69.07;;;65.57;;
6121;SDS011;3091;51.506;7.672;2022-12-20T05:08:27;63.60;;;59.60;;
6121;SDS011;3091;51.506;7.672;2022-12-20T05:10:53;52.97;;;50.27;;
6121;SDS011;3091;51.506;7.672;2022-12-20T05:13:19;54.80;;;51.90;;
6121;SDS011;3091;51.506;7.672;2022-12-20T05:15:49;64.20;;;60.77;;
6121;SDS011;3091;51.506;7.672;2022-12-20T05:18:15;67.60;;;63.93;;
6121;SDS011;3091;51.506;7.672;2022-12-20T05:20:41;76.23;;;72.13;;
6121;SDS011;3091;51.506;7.672;2022-12-20T05:23:08;73.00;;;68.90;;
6121;SDS011;3091;51.506;7.672;2022-12-20T05:25:53;70.90;;;66.90;;
6121;SDS011;3091;51.506;7.672;2022-12-20T05:28:38;68.80;;;64.80;;
6121;SDS011;3091;51.506;7.672;2022-12-20T05:31:06;68.57;;;64.57;;
6121;SDS011;3091;51.506;7.672;2022-12-20T05:33:32;67.40;;;63.40;;
6121;SDS011;3091;51.506;7.672;2022-12-20T05:35:58;67.30;;;63.30;;
6121;SDS011;3091;51.506;7.672;2022-12-20T05:38:24;64.27;;;60.47;;
6121;SDS011;3091;51.506;7.672;2022-12-20T05:40:50;65.90;;;62.03;;
6121;SDS011;3091;51.506;7.672;2022-12-20T05:43:19;64.53;;;60.57;;
6121;SDS011;3091;51.506;7.672;2022-12-20T05:45:46;65.10;;;61.40;;
6121;SDS011;3091;51.506;7.672;2022-12-20T05:48:13;64.47;;;60.70;;
6121;SDS011;3091;51.506;7.672;2022-12-20T05:50:39;59.70;;;56.30;;
6121;SDS011;3091;51.506;7.672;2022-12-20T05:53:13;58.80;;;55.50;;
6121;SDS011;3091;51.506;7.672;2022-12-20T05:55:57;60.10;;;56.43;;
6121;SDS011;3091;51.506;7.672;2022-12-20T05:58:25;57.13;;;53.97;;
6121;SDS011;3091;51.506;7.672;2022-12-20T06:00:51;54.90;;;51.90;;
6121;SDS011;3091;51.506;7.672;2022-12-20T06:03:17;53.27;;;50.37;;
6121;SDS011;3091;51.506;7.672;2022-12-20T06:05:43;46.90;;;44.40;;
6121;SDS011;3091;51.506;7.672;2022-12-20T06:08:10;41.00;;;38.80;;
6121;SDS011;3091;51.506;7.672;2022-12-20T06:10:36;32.10;;;30.40;;
6121;SDS011;3091;51.506;7.672;2022-12-20T06:13:04;26.30;;;24.90;;
6121;SDS011;3091;51.506;7.672;2022-12-20T06:15:30;24.77;;;23.47;;
6121;SDS011;3091;51.506;7.672;2022-12-20T06:17:56;25.20;;;23.70;;
6121;SDS011;3091;51.506;7.672;2022-12-20T06:20:22;22.97;;;21.83;;
6121;SDS011;3091;51.506;7.672;2022-12-20T06:22:48;23.00;;;21.80;;
6121;SDS011;3091;51.506;7.672;2022-12-20T06:25:14;22.57;;;21.13;;
6121;SDS011;3091;51.506;7.672;2022-12-20T06:27:41;19.47;;;18.57;;
6121;SDS011;3091;51.506;7.672;2022-12-20T06:30:07;18.60;;;17.70;;
6121;SDS011;3091;51.506;7.672;2022-12-20T06:32:34;18.23;;;17.43;;
6121;SDS011;3091;51.506;7.672;2022-12-20T06:35:00;18.73;;;17.60;;
6121;SDS011;3091;51.506;7.672;2022-12-20T06:37:26;17.83;;;17.13;;
6121;SDS011;3091;51.506;7.672;2022-12-20T06:39:52;17.80;;;16.93;;
6121;SDS011;3091;51.506;7.672;2022-12-20T06:42:18;17.23;;;16.43;;
6121;SDS011;3091;51.506;7.672;2022-12-20T06:44:44;17.10;;;16.40;;
6121;SDS011;3091;51.506;7.672;2022-12-20T06:47:10;16.57;;;15.77;;
6121;SDS011;3091;51.506;7.672;2022-12-20T06:49:39;16.57;;;15.87;;
6121;SDS011;3091;51.506;7.672;2022-12-20T06:52:05;16.00;;;15.40;;
6121;SDS011;3091;51.506;7.672;2022-12-20T06:54:31;15.60;;;15.00;;
6121;SDS011;3091;51.506;7.672;2022-12-20T06:56:57;15.20;;;14.60;;
6121;SDS011;3091;51.506;7.672;2022-12-20T06:59:23;15.57;;;14.97;;
6121;SDS011;3091;51.506;7.672;2022-12-20T07:01:49;15.97;;;15.27;;
6121;SDS011;3091;51.506;7.672;2022-12-20T07:04:15;15.40;;;14.80;;
6121;SDS011;3091;51.506;7.672;2022-12-20T07:06:41;15.53;;;14.93;;
6121;SDS011;3091;51.506;7.672;2022-12-20T07:09:07;14.50;;;13.80;;
6121;SDS011;3091;51.506;7.672;2022-12-20T07:11:35;14.53;;;13.67;;
6121;SDS011;3091;51.506;7.672;2022-12-20T07:14:04;14.70;;;14.10;;
6121;SDS011;3091;51.506;7.672;2022-12-20T07:16:30;15.30;;;14.60;;
6121;SDS011;3091;51.506;7.672;2022-12-20T07:18:56;14.53;;;14.03;;
6121;SDS011;3091;51.506;7.672;2022-12-20T07:21:22;15.00;;;14.23;;
6121;SDS011;3091;51.506;7.672;2022-12-20T07:23:48;15.00;;;14.40;;
6121;SDS011;3091;51.506;7.672;2022-12-20T07:26:14;15.80;;;15.10;;
6121;SDS011;3091;51.506;7.672;2022-12-20T07:28:41;14.93;;;14.27;;
6121;SDS011;3091;51.506;7.672;2022-12-20T07:31:07;14.80;;;14.20;;
6121;SDS011;3091;51.506;7.672;2022-12-20T07:33:33;15.30;;;14.70;;
6121;SDS011;3091;51.506;7.672;2022-12-20T07:36:02;14.53;;;13.93;;
6121;SDS011;3091;51.506;7.672;2022-12-20T07:38:28;15.03;;;14.43;;
6121;SDS011;3091;51.506;7.672;2022-12-20T07:40:54;15.73;;;15.03;;
6121;SDS011;3091;51.506;7.672;2022-12-20T07:43:20;14.10;;;13.60;;
6121;SDS011;3091;51.506;7.672;2022-12-20T07:45:46;14.70;;;14.10;;
6121;SDS011;3091;51.506;7.672;2022-12-20T07:48:12;14.73;;;14.03;;
6121;SDS011;3091;51.506;7.672;2022-12-20T07:50:38;15.33;;;14.73;;
6121;SDS011;3091;51.506;7.672;2022-12-20T07:53:04;14.73;;;14.13;;
6121;SDS011;3091;51.506;7.672;2022-12-20T07:55:32;15.50;;;14.60;;
6121;SDS011;3091;51.506;7.672;2022-12-20T07:58:00;14.73;;;14.13;;
6121;SDS011;3091;51.506;7.672;2022-12-20T08:00:27;14.07;;;13.53;;
6121;SDS011;3091;51.506;7.672;2022-12-20T08:05:19;14.30;;;13.70;;
6121;SDS011;3091;51.506;7.672;2022-12-20T08:07:45;12.90;;;12.50;;
6121;SDS011;3091;51.506;7.672;2022-12-20T08:10:12;13.17;;;12.67;;
6121;SDS011;3091;51.506;7.672;2022-12-20T08:12:39;13.63;;;13.03;;
6121;SDS011;3091;51.506;7.672;2022-12-20T08:15:06;12.47;;;12.07;;
6121;SDS011;3091;51.506;7.672;2022-12-20T08:17:32;13.00;;;12.50;;
6121;SDS011;3091;51.506;7.672;2022-12-20T08:19:58;11.70;;;11.30;;
6121;SDS011;3091;51.506;7.672;2022-12-20T08:22:25;11.80;;;11.40;;
6121;SDS011;3091;51.506;7.672;2022-12-20T08:24:51;13.20;;;12.60;;
6121;SDS011;3091;51.506;7.672;2022-12-20T08:27:17;11.77;;;11.37;;
6121;SDS011;3091;51.506;7.672;2022-12-20T08:29:43;12.40;;;12.00;;
6121;SDS011;3091;51.506;7.672;2022-12-20T08:32:09;12.60;;;12.10;;
6121;SDS011;3091;51.506;7.672;2022-12-20T08:34:36;13.03;;;12.57;;
6121;SDS011;3091;51.506;7.672;2022-12-20T08:37:03;13.40;;;12.90;;
6121;SDS011;3091;51.506;7.672;2022-12-20T08:39:29;13.03;;;12.53;;
6121;SDS011;3091;51.506;7.672;2022-12-20T08:41:55;13.77;;;13.27;;
6121;SDS011;3091;51.506;7.672;2022-12-20T08:44:24;13.70;;;13.20;;
6121;SDS011;3091;51.506;7.672;2022-12-20T08:46:50;13.90;;;13.30;;
6121;SDS011;3091;51.506;7.672;2022-12-20T08:49:18;14.33;;;13.63;;
6121;SDS011;3091;51.506;7.672;2022-12-20T08:51:44;14.10;;;13.50;;
6121;SDS011;3091;51.506;7.672;2022-12-20T08:54:11;13.50;;;13.00;;
6121;SDS011;3091;51.506;7.672;2022-12-20T08:56:37;13.60;;;13.10;;
6121;SDS011;3091;51.506;7.672;2022-12-20T08:59:03;13.30;;;12.80;;
6121;SDS011;3091;51.506;7.672;2022-12-20T09:01:29;13.63;;;13.13;;
6121;SDS011;3091;51.506;7.672;2022-12-20T09:03:57;13.87;;;13.27;;
6121;SDS011;3091;51.506;7.672;2022-12-20T09:06:23;13.10;;;12.60;;
6121;SDS011;3091;51.506;7.672;2022-12-20T09:08:49;12.40;;;11.93;;
6121;SDS011;3091;51.506;7.672;2022-12-20T09:11:22;12.07;;;11.67;;
6121;SDS011;3091;51.506;7.672;2022-12-20T09:13:49;12.20;;;11.80;;
6121;SDS011;3091;51.506;7.672;2022-12-20T09:16:19;13.27;;;12.77;;
6121;SDS011;3091;51.506;7.672;2022-12-20T09:18:48;13.43;;;12.93;;
6121;SDS011;3091;51.506;7.672;2022-12-20T09:21:15;13.20;;;12.70;;
6121;SDS011;3091;51.506;7.672;2022-12-20T09:23:41;13.33;;;12.87;;
6121;SDS011;3091;51.506;7.672;2022-12-20T09:26:09;13.50;;;13.00;;
6121;SDS011;3091;51.506;7.672;2022-12-20T09:28:35;13.30;;;12.80;;
6121;SDS011;3091;51.506;7.672;2022-12-20T09:31:03;13.97;;;13.37;;
6121;SDS011;3091;51.506;7.672;2022-12-20T09:33:30;13.80;;;13.30;;
6121;SDS011;3091;51.506;7.672;2022-12-20T09:35:56;13.40;;;12.90;;
6121;SDS011;3091;51.506;7.672;2022-12-20T09:38:23;13.70;;;13.20;;
6121;SDS011;3091;51.506;7.672;2022-12-20T09:40:50;14.30;;;13.70;;
6121;SDS011;3091;51.506;7.672;2022-12-20T09:43:17;14.03;;;13.53;;
6121;SDS011;3091;51.506;7.672;2022-12-20T09:45:45;13.67;;;13.17;;
6121;SDS011;3091;51.506;7.672;2022-12-20T09:48:15;13.67;;;13.17;;
6121;SDS011;3091;51.506;7.672;2022-12-20T09:53:24;13.27;;;12.73;;
6121;SDS011;3091;51.506;7.672;2022-12-20T09:55:55;13.73;;;13.23;;
6121;SDS011;3091;51.506;7.672;2022-12-20T09:58:45;13.40;;;12.90;;
6121;SDS011;3091;51.506;7.672;2022-12-20T10:01:31;13.57;;;13.07;;
6121;SDS011;3091;51.506;7.672;2022-12-20T10:03:57;13.80;;;13.23;;
6121;SDS011;3091;51.506;7.672;2022-12-20T10:06:28;14.53;;;13.93;;
6121;SDS011;3091;51.506;7.672;2022-12-20T10:08:56;13.20;;;12.60;;
6121;SDS011;3091;51.506;7.672;2022-12-20T10:14:15;13.53;;;13.03;;
6121;SDS011;3091;51.506;7.672;2022-12-20T10:16:48;13.10;;;12.60;;
6121;SDS011;3091;51.506;7.672;2022-12-20T10:24:34;12.83;;;12.33;;
6121;SDS011;3091;51.506;7.672;2022-12-20T10:27:09;13.27;;;12.77;;
6121;SDS011;3091;51.506;7.672;2022-12-20T10:29:36;13.47;;;12.87;;
6121;SDS011;3091;51.506;7.672;2022-12-20T10:32:04;12.60;;;12.20;;
6121;SDS011;3091;51.506;7.672;2022-12-20T10:34:34;12.97;;;12.53;;
6121;SDS011;3091;51.506;7.672;2022-12-20T10:37:13;13.03;;;12.53;;
6121;SDS011;3091;51.506;7.672;2022-12-20T10:39:45;12.93;;;12.43;;
6121;SDS011;3091;51.506;7.672;2022-12-20T10:44:46;13.00;;;12.50;;
6121;SDS011;3091;51.506;7.672;2022-12-20T10:50:05;12.77;;;12.37;;
6121;SDS011;3091;51.506;7.672;2022-12-20T10:52:32;12.80;;;12.40;;
6121;SDS011;3091;51.506;7.672;2022-12-20T10:54:58;13.40;;;12.90;;
6121;SDS011;3091;51.506;7.672;2022-12-20T10:57:25;14.23;;;13.73;;
6121;SDS011;3091;51.506;7.672;2022-12-20T10:59:54;13.80;;;13.00;;
6121;SDS011;3091;51.506;7.672;2022-12-20T11:02:31;13.60;;;13.10;;
6121;SDS011;3091;51.506;7.672;2022-12-20T11:05:02;13.53;;;13.03;;
6121;SDS011;3091;51.506;7.672;2022-12-20T11:07:31;12.60;;;12.20;;
6121;SDS011;3091;51.506;7.672;2022-12-20T11:09:58;12.70;;;12.30;;
6121;SDS011;3091;51.506;7.672;2022-12-20T11:12:24;12.90;;;12.30;;
6121;SDS011;3091;51.506;7.672;2022-12-20T11:15:06;12.50;;;12.10;;
6121;SDS011;3091;51.506;7.672;2022-12-20T11:17:39;12.57;;;12.17;;
6121;SDS011;3091;51.506;7.672;2022-12-20T11:22:58;12.80;;;12.30;;
6121;SDS011;3091;51.506;7.672;2022-12-20T11:25:43;13.07;;;12.57;;
6121;SDS011;3091;51.506;7.672;2022-12-20T11:36:56;13.03;;;12.53;;
6121;SDS011;3091;51.506;7.672;2022-12-20T11:39:29;12.40;;;12.00;;
6121;SDS011;3091;51.506;7.672;2022-12-20T11:42:12;13.40;;;12.80;;
6121;SDS011;3091;51.506;7.672;2022-12-20T11:52:37;13.33;;;12.83;;
6121;SDS011;3091;51.506;7.672;2022-12-20T11:55:23;13.53;;;12.93;;
6121;SDS011;3091;51.506;7.672;2022-12-20T12:00:20;15.03;;;14.53;;
6121;SDS011;3091;51.506;7.672;2022-12-20T12:02:50;14.70;;;14.20;;
6121;SDS011;3091;51.506;7.672;2022-12-20T12:07:56;15.23;;;14.63;;
6121;SDS011;3091;51.506;7.672;2022-12-20T12:10:26;14.87;;;14.30;;
6121;SDS011;3091;51.506;7.672;2022-12-20T12:15:27;14.63;;;14.13;;
6121;SDS011;3091;51.506;7.672;2022-12-20T12:18:00;14.97;;;14.40;;
6121;SDS011;3091;51.506;7.672;2022-12-20T12:23:12;14.83;;;14.33;;
6121;SDS011;3091;51.506;7.672;2022-12-20T12:25:41;14.77;;;14.20;;
6121;SDS011;3091;51.506;7.672;2022-12-20T12:28:08;15.40;;;14.80;;
6121;SDS011;3091;51.506;7.672;2022-12-20T12:30:36;13.40;;;12.90;;
6121;SDS011;3091;51.506;7.672;2022-12-20T12:33:05;16.70;;;15.80;;
6121;SDS011;3091;51.506;7.672;2022-12-20T12:45:48;13.67;;;13.17;;
6121;SDS011;3091;51.506;7.672;2022-12-20T12:50:48;14.00;;;13.20;;
6121;SDS011;3091;51.506;7.672;2022-12-20T12:53:16;13.50;;;13.00;;
6121;SDS011;3091;51.506;7.672;2022-12-20T12:55:45;13.90;;;13.30;;
6121;SDS011;3091;51.506;7.672;2022-12-20T12:58:33;13.60;;;13.10;;
6121;SDS011;3091;51.506;7.672;2022-12-20T13:00:59;13.70;;;13.20;;
6121;SDS011;3091;51.506;7.672;2022-12-20T13:03:43;14.47;;;13.80;;
6121;SDS011;3091;51.506;7.672;2022-12-20T13:09:09;12.77;;;12.17;;
6121;SDS011;3091;51.506;7.672;2022-12-20T13:11:39;12.20;;;11.70;;
6121;SDS011;3091;51.506;7.672;2022-12-20T13:16:44;12.53;;;12.00;;
6121;SDS011;3091;51.506;7.672;2022-12-20T13:19:12;11.93;;;11.53;;
6121;SDS011;3091;51.506;7.672;2022-12-20T13:21:40;12.30;;;11.90;;
6121;SDS011;3091;51.506;7.672;2022-12-20T13:26:52;14.70;;;13.60;;
6121;SDS011;3091;51.506;7.672;2022-12-20T13:29:42;13.93;;;13.43;;
6121;SDS011;3091;51.506;7.672;2022-12-20T13:32:50;13.60;;;13.10;;
6121;SDS011;3091;51.506;7.672;2022-12-20T13:34:54;14.30;;;13.80;;
6121;SDS011;3091;51.506;7.672;2022-12-20T13:37:28;14.63;;;14.03;;
6121;SDS011;3091;51.506;7.672;2022-12-20T13:40:20;15.90;;;15.30;;
6121;SDS011;3091;51.506;7.672;2022-12-20T13:42:48;15.37;;;14.77;;
6121;SDS011;3091;51.506;7.672;2022-12-20T13:45:17;15.23;;;14.63;;
6121;SDS011;3091;51.506;7.672;2022-12-20T13:47:51;16.53;;;15.53;;
6121;SDS011;3091;51.506;7.672;2022-12-20T13:50:30;15.20;;;14.60;;
6121;SDS011;3091;51.506;7.672;2022-12-20T13:52:57;15.03;;;14.33;;
6121;SDS011;3091;51.506;7.672;2022-12-20T13:55:31;15.60;;;15.00;;
6121;SDS011;3091;51.506;7.672;2022-12-20T13:58:02;25.70;;;24.50;;
6121;SDS011;3091;51.506;7.672;2022-12-20T14:00:28;37.17;;;35.37;;
6121;SDS011;3091;51.506;7.672;2022-12-20T14:02:54;44.60;;;42.40;;
6121;SDS011;3091;51.506;7.672;2022-12-20T14:05:24;45.33;;;43.03;;
6121;SDS011;3091;51.506;7.672;2022-12-20T14:08:13;42.53;;;40.33;;
6121;SDS011;3091;51.506;7.672;2022-12-20T14:10:37;38.80;;;36.90;;
6121;SDS011;3091;51.506;7.672;2022-12-20T14:13:12;31.40;;;29.90;;
6121;SDS011;3091;51.506;7.672;2022-12-20T14:15:43;24.60;;;23.50;;
6121;SDS011;3091;51.506;7.672;2022-12-20T14:21:00;18.90;;;17.97;;
6121;SDS011;3091;51.506;7.672;2022-12-20T14:26:05;19.90;;;19.00;;
6121;SDS011;3091;51.506;7.672;2022-12-20T14:31:04;18.60;;;17.60;;
6121;SDS011;3091;51.506;7.672;2022-12-20T14:33:40;17.80;;;17.00;;
6121;SDS011;3091;51.506;7.672;2022-12-20T14:36:07;17.20;;;16.50;;
6121;SDS011;3091;51.506;7.672;2022-12-20T14:38:34;16.30;;;15.60;;
6121;SDS011;3091;51.506;7.672;2022-12-20T14:41:00;16.70;;;16.00;;
6121;SDS011;3091;51.506;7.672;2022-12-20T14:43:33;16.80;;;16.10;;
6121;SDS011;3091;51.506;7.672;2022-12-20T14:46:18;16.00;;;15.40;;
6121;SDS011;3091;51.506;7.672;2022-12-20T14:48:46;16.40;;;15.70;;
6121;SDS011;3091;51.506;7.672;2022-12-20T14:51:13;16.73;;;16.03;;
6121;SDS011;3091;51.506;7.672;2022-12-20T14:53:39;24.00;;;22.90;;
6121;SDS011;3091;51.506;7.672;2022-12-20T14:56:16;35.67;;;34.07;;
6121;SDS011;3091;51.506;7.672;2022-12-20T14:58:44;49.30;;;46.90;;
6121;SDS011;3091;51.506;7.672;2022-12-20T15:04:40;79.33;;;75.73;;
6121;SDS011;3091;51.506;7.672;2022-12-20T15:06:43;70.10;;;66.70;;
6121;SDS011;3091;51.506;7.672;2022-12-20T15:09:12;72.13;;;68.23;;
6121;SDS011;3091;51.506;7.672;2022-12-20T15:11:41;87.87;;;83.47;;
6121;SDS011;3091;51.506;7.672;2022-12-20T15:14:53;88.70;;;84.30;;
6121;SDS011;3091;51.506;7.672;2022-12-20T15:16:54;93.00;;;88.40;;
6121;SDS011;3091;51.506;7.672;2022-12-20T15:19:20;87.20;;;82.80;;
6121;SDS011;3091;51.506;7.672;2022-12-20T15:21:46;84.70;;;80.30;;
6121;SDS011;3091;51.506;7.672;2022-12-20T15:24:14;79.33;;;75.03;;
6121;SDS011;3091;51.506;7.672;2022-12-20T15:26:41;83.43;;;78.83;;
6121;SDS011;3091;51.506;7.672;2022-12-20T15:29:23;79.93;;;75.27;;
6121;SDS011;3091;51.506;7.672;2022-12-20T15:31:50;78.80;;;74.30;;
6121;SDS011;3091;51.506;7.672;2022-12-20T15:36:45;76.43;;;72.13;;
6121;SDS011;3091;51.506;7.672;2022-12-20T15:39:11;73.37;;;69.17;;
6121;SDS011;3091;51.506;7.672;2022-12-20T15:41:39;66.70;;;62.70;;
6121;SDS011;3091;51.506;7.672;2022-12-20T15:44:06;64.50;;;60.50;;
6121;SDS011;3091;51.506;7.672;2022-12-20T15:46:35;63.90;;;59.87;;
6121;SDS011;3091;51.506;7.672;2022-12-20T15:49:01;64.77;;;60.87;;
6121;SDS011;3091;51.506;7.672;2022-12-20T15:51:31;63.63;;;59.37;;
6121;SDS011;3091;51.506;7.672;2022-12-20T15:53:59;62.13;;;58.33;;
6121;SDS011;3091;51.506;7.672;2022-12-20T15:56:25;61.30;;;57.50;;
6121;SDS011;3091;51.506;7.672;2022-12-20T15:58:52;61.07;;;57.27;;
6121;SDS011;3091;51.506;7.672;2022-12-20T16:04:14;61.80;;;58.10;;
6121;SDS011;3091;51.506;7.672;2022-12-20T16:06:41;60.57;;;56.87;;
6121;SDS011;3091;51.506;7.672;2022-12-20T16:09:07;64.20;;;60.40;;
6121;SDS011;3091;51.506;7.672;2022-12-20T16:11:33;62.50;;;58.60;;
6121;SDS011;3091;51.506;7.672;2022-12-20T16:13:59;66.90;;;62.83;;
6121;SDS011;3091;51.506;7.672;2022-12-20T16:16:30;66.10;;;62.20;;
6121;SDS011;3091;51.506;7.672;2022-12-20T16:18:56;64.93;;;61.13;;
6121;SDS011;3091;51.506;7.672;2022-12-20T16:21:26;67.50;;;63.60;;
6121;SDS011;3091;51.506;7.672;2022-12-20T16:23:53;66.17;;;62.27;;
6121;SDS011;3091;51.506;7.672;2022-12-20T16:26:20;63.30;;;59.50;;
6121;SDS011;3091;51.506;7.672;2022-12-20T16:28:47;64.67;;;60.77;;
6121;SDS011;3091;51.506;7.672;2022-12-20T16:33:42;63.77;;;60.13;;
6121;SDS011;3091;51.506;7.672;2022-12-20T16:36:10;60.90;;;57.40;;
6121;SDS011;3091;51.506;7.672;2022-12-20T16:38:36;65.60;;;62.00;;
6121;SDS011;3091;51.506;7.672;2022-12-20T16:41:15;69.07;;;65.37;;
6121;SDS011;3091;51.506;7.672;2022-12-20T16:43:41;66.00;;;62.50;;